createdAt,value
2018-09-30T00:02:35.677Z,101629.67
2018-09-30T00:05:39.574Z,101617.72
2018-09-30T00:08:43.467Z,101616.52
2018-09-30T00:11:47.908Z,101618.48
2018-09-30T00:14:51.820Z,101613.44
2018-09-30T00:17:55.778Z,101606.80
2018-09-30T00:20:59.677Z,101607.21
2018-09-30T00:24:09.232Z,101604.93
2018-09-30T00:27:19.089Z,101585.39
2018-09-30T00:30:23.007Z,101575.11
2018-09-30T00:33:26.901Z,101574.67
2018-09-30T00:36:30.806Z,101568.80
2018-09-30T00:39:34.714Z,101568.84
2018-09-30T00:42:38.599Z,101568.72
2018-09-30T00:45:42.833Z,101570.40
2018-09-30T00:48:46.729Z,101567.53
2018-09-30T00:51:50.639Z,101567.76
2018-09-30T00:54:54.891Z,101564.88
2018-09-30T00:57:59.005Z,101571.03
2018-09-30T01:01:02.889Z,101560.00
2018-09-30T01:04:07.381Z,101559.43
2018-09-30T01:07:11.630Z,101550.12
2018-09-30T01:10:15.552Z,101553.08
2018-09-30T01:13:19.433Z,101546.16
2018-09-30T01:16:23.350Z,101546.20
2018-09-30T01:19:27.239Z,101545.84
2018-09-30T01:22:31.220Z,101544.48
2018-09-30T01:25:35.122Z,101549.91
2018-09-30T01:28:39.574Z,101547.08
2018-09-30T01:31:43.482Z,101548.58
2018-09-30T01:34:47.385Z,101539.54
2018-09-30T01:37:51.283Z,101541.57
2018-09-30T01:40:55.190Z,101540.38
2018-09-30T01:43:59.298Z,101534.23
2018-09-30T01:47:03.210Z,101532.17
2018-09-30T01:50:07.439Z,101527.00
2018-09-30T01:53:11.524Z,101525.42
2018-09-30T01:56:15.408Z,101520.39
2018-09-30T01:59:19.319Z,101506.94
2018-09-30T02:02:23.221Z,101504.81
2018-09-30T02:05:27.128Z,101502.20
2018-09-30T02:08:31.044Z,101495.46
2018-09-30T02:11:34.944Z,101484.33
2018-09-30T02:14:39.061Z,101480.89
2018-09-30T02:17:43.030Z,101481.03
2018-09-30T02:20:47.130Z,101477.51
2018-09-30T02:23:51.066Z,101475.43
2018-09-30T02:26:54.953Z,101467.94
2018-09-30T02:29:58.874Z,101462.20
2018-09-30T02:33:02.978Z,101459.97
2018-09-30T02:36:06.877Z,101461.70
2018-09-30T02:39:10.882Z,101450.63
2018-09-30T02:42:14.799Z,101447.81
2018-09-30T02:45:18.881Z,101444.86
2018-09-30T02:48:22.766Z,101438.51
2018-09-30T02:51:26.865Z,101440.19
2018-09-30T02:54:30.742Z,101432.06
2018-09-30T02:57:34.664Z,101421.92
2018-09-30T03:00:38.740Z,101423.26
2018-09-30T03:03:42.668Z,101416.91
2018-09-30T03:06:51.833Z,101420.44
2018-09-30T03:09:56.062Z,101416.25
2018-09-30T03:13:00.029Z,101412.85
2018-09-30T03:16:03.913Z,101411.41
2018-09-30T03:19:07.882Z,101404.53
2018-09-30T03:22:11.770Z,101400.16
2018-09-30T03:25:15.979Z,101399.56
2018-09-30T03:28:20.081Z,101397.37
2018-09-30T03:31:24.056Z,101390.05
2018-09-30T03:34:27.967Z,101388.73
2018-09-30T03:37:31.856Z,101388.14
2018-09-30T03:40:35.763Z,101388.49
2018-09-30T03:43:39.649Z,101379.28
2018-09-30T03:46:43.581Z,101376.37
2018-09-30T03:49:47.487Z,101374.23
2018-09-30T03:52:51.399Z,101369.20
2018-09-30T03:55:55.521Z,101362.98
2018-09-30T03:58:59.608Z,101363.08
2018-09-30T04:02:04.038Z,101361.70
2018-09-30T04:05:08.473Z,101357.61
2018-09-30T04:08:12.537Z,101351.87
2018-09-30T04:11:16.437Z,101352.77
2018-09-30T04:14:20.334Z,101346.76
2018-09-30T04:17:24.993Z,101340.91
2018-09-30T04:20:29.002Z,101328.95
2018-09-30T04:23:33.225Z,101336.77
2018-09-30T04:26:38.582Z,101335.58
2018-09-30T04:29:42.691Z,101332.62
2018-09-30T04:32:46.927Z,101326.33
2018-09-30T04:35:50.826Z,101331.48
2018-09-30T04:38:54.715Z,101331.87
2018-09-30T04:41:58.607Z,101322.89
2018-09-30T04:45:02.515Z,101325.01
2018-09-30T04:48:06.774Z,101325.34
2018-09-30T04:51:10.657Z,101320.77
2018-09-30T04:54:14.745Z,101319.85
2018-09-30T04:57:18.773Z,101315.13
2018-09-30T05:00:22.654Z,101319.22
2018-09-30T05:03:27.078Z,101313.58
2018-09-30T05:06:30.975Z,101314.45
2018-09-30T05:09:35.064Z,101309.83
2018-09-30T05:12:38.974Z,101305.16
2018-09-30T05:15:42.879Z,101311.59
2018-09-30T05:18:46.774Z,101305.16
2018-09-30T05:21:50.675Z,101300.18
2018-09-30T05:24:54.613Z,101303.05
2018-09-30T05:27:58.638Z,101299.70
2018-09-30T05:31:02.561Z,101298.33
2018-09-30T05:34:06.681Z,101287.27
2018-09-30T05:37:10.795Z,101284.36
2018-09-30T05:40:14.873Z,101292.03
2018-09-30T05:43:18.777Z,101278.84
2018-09-30T05:46:22.680Z,101288.63
2018-09-30T05:49:26.815Z,101287.70
2018-09-30T05:52:30.726Z,101286.08
2018-09-30T05:55:34.621Z,101287.70
2018-09-30T05:58:38.493Z,101280.91
2018-09-30T06:01:42.497Z,101281.31
2018-09-30T06:04:46.501Z,101280.38
2018-09-30T06:07:50.419Z,101279.64
2018-09-30T06:10:54.669Z,101279.15
2018-09-30T06:13:58.684Z,101272.11
2018-09-30T06:17:02.741Z,101272.80
2018-09-30T06:20:07.090Z,101278.94
2018-09-30T06:23:10.966Z,101263.86
2018-09-30T06:26:14.858Z,101259.14
2018-09-30T06:29:34.129Z,101251.22
2018-09-30T06:32:46.247Z,101258.50
2018-09-30T06:35:50.189Z,101258.84
2018-09-30T06:38:54.131Z,101254.41
2018-09-30T06:42:06.686Z,101252.06
2018-09-30T06:45:14.620Z,101253.04
2018-09-30T06:48:18.825Z,101251.22
2018-09-30T06:51:22.738Z,101251.02
2018-09-30T06:54:26.673Z,101249.20
2018-09-30T06:57:30.858Z,101247.75
2018-09-30T07:00:34.790Z,101251.45
2018-09-30T07:03:38.673Z,101264.92
2018-09-30T07:06:42.556Z,101267.04
2018-09-30T07:09:46.551Z,101268.13
2018-09-30T07:12:50.447Z,101269.01
2018-09-30T07:15:54.361Z,101260.63
2018-09-30T07:18:58.343Z,101255.80
2018-09-30T07:22:02.371Z,101252.56
2018-09-30T07:25:07.036Z,101251.28
2018-09-30T07:28:11.101Z,101244.78
2018-09-30T07:31:15.129Z,101243.73
2018-09-30T07:34:19.054Z,101242.73
2018-09-30T07:37:22.984Z,101238.05
2018-09-30T07:40:29.097Z,101234.09
2018-09-30T07:43:33.536Z,101241.56
2018-09-30T07:46:37.453Z,101236.76
2018-09-30T07:49:41.578Z,101242.56
2018-09-30T07:52:45.515Z,101253.36
2018-09-30T07:55:49.506Z,101247.19
2018-09-30T07:58:53.866Z,101254.59
2018-09-30T08:01:58.477Z,101250.12
2018-09-30T08:05:02.719Z,101248.09
2018-09-30T08:08:06.662Z,101237.52
2018-09-30T08:11:10.897Z,101248.47
2018-09-30T08:14:14.936Z,101250.34
2018-09-30T08:17:21.324Z,101241.20
2018-09-30T08:20:25.237Z,101247.36
2018-09-30T08:23:29.126Z,101245.80
2018-09-30T08:26:33.214Z,101242.53
2018-09-30T08:29:37.406Z,101242.72
2018-09-30T08:32:42.160Z,101247.08
2018-09-30T08:35:51.271Z,101236.59
2018-09-30T08:38:55.395Z,101232.47
2018-09-30T08:41:59.664Z,101234.65
2018-09-30T08:45:07.046Z,101227.99
2018-09-30T08:48:10.941Z,101223.92
2018-09-30T08:51:14.863Z,101229.55
2018-09-30T08:54:18.842Z,101223.27
2018-09-30T08:57:22.996Z,101215.70
2018-09-30T09:00:28.114Z,101218.31
2018-09-30T09:03:32.100Z,101219.23
2018-09-30T09:06:37.239Z,101223.77
2018-09-30T09:09:41.223Z,101215.22
2018-09-30T09:12:47.321Z,101213.32
2018-09-30T09:15:52.002Z,101210.17
2018-09-30T09:18:57.331Z,101210.83
2018-09-30T09:22:01.302Z,101209.98
2018-09-30T09:25:12.642Z,101201.59
2018-09-30T09:28:17.547Z,101195.09
2018-09-30T09:31:21.502Z,101192.84
2018-09-30T09:34:26.726Z,101186.69
2018-09-30T09:37:31.359Z,101185.20
2018-09-30T09:40:35.668Z,101180.71
2018-09-30T09:43:39.597Z,101176.27
2018-09-30T09:46:43.598Z,101173.41
2018-09-30T09:49:47.567Z,101156.36
2018-09-30T09:52:51.697Z,101152.78
2018-09-30T09:55:55.592Z,101159.75
2018-09-30T09:58:59.606Z,101149.36
2018-09-30T10:02:03.577Z,101142.90
2018-09-30T10:05:07.521Z,101146.38
2018-09-30T10:08:12.028Z,101142.93
2018-09-30T10:11:16.081Z,101140.31
2018-09-30T10:14:20.088Z,101139.43
2018-09-30T10:17:24.014Z,101136.92
2018-09-30T10:20:28.048Z,101140.43
2018-09-30T10:23:31.940Z,101134.97
2018-09-30T10:26:36.140Z,101138.63
2018-09-30T10:29:40.028Z,101127.63
2018-09-30T10:32:44.300Z,101126.67
2018-09-30T10:35:48.249Z,101121.05
2018-09-30T10:38:52.410Z,101122.88
2018-09-30T10:41:56.417Z,101114.31
2018-09-30T10:45:00.539Z,101106.30
2018-09-30T10:48:04.561Z,101108.25
2018-09-30T10:51:08.468Z,101103.55
2018-09-30T10:54:12.633Z,101096.73
2018-09-30T10:57:16.739Z,101084.44
2018-09-30T11:00:20.961Z,101084.59
2018-09-30T11:03:24.872Z,101073.21
2018-09-30T11:06:29.065Z,101066.69
2018-09-30T11:09:33.215Z,101066.01
2018-09-30T11:12:37.326Z,101057.85
2018-09-30T11:15:44.303Z,101053.45
2018-09-30T11:18:53.040Z,101061.88
2018-09-30T11:21:56.935Z,101058.95
2018-09-30T11:25:01.387Z,101052.00
2018-09-30T11:28:05.294Z,101054.98
2018-09-30T11:31:09.529Z,101037.67
2018-09-30T11:34:13.506Z,101037.45
2018-09-30T11:37:17.567Z,101033.13
2018-09-30T11:40:21.457Z,101031.02
2018-09-30T11:43:28.401Z,101030.41
2018-09-30T11:46:32.334Z,101023.39
2018-09-30T11:49:36.650Z,101024.18
2018-09-30T11:52:40.614Z,101030.49
2018-09-30T11:55:52.825Z,101024.81
2018-09-30T11:59:06.653Z,101024.27
2018-09-30T12:02:12.269Z,101020.20
2018-09-30T12:05:26.580Z,101013.60
2018-09-30T12:08:39.659Z,101006.22
2018-09-30T12:11:45.227Z,101004.01
2018-09-30T12:14:49.460Z,101006.73
2018-09-30T12:21:31.491Z,100997.23
2018-09-30T12:24:35.539Z,100983.21
2018-09-30T12:27:39.743Z,100973.70
2018-09-30T12:30:51.022Z,100970.69
2018-09-30T12:33:55.791Z,100965.23
2018-09-30T12:36:59.748Z,100965.73
2018-09-30T12:40:04.080Z,100956.69
2018-09-30T12:43:08.591Z,100957.77
2018-09-30T12:46:13.525Z,100953.98
2018-09-30T12:49:17.483Z,100954.62
2018-09-30T12:52:28.579Z,100949.61
2018-09-30T12:55:40.162Z,100943.70
2018-09-30T12:58:49.740Z,100946.72
2018-09-30T13:02:00.611Z,100943.59
2018-09-30T13:05:06.935Z,100935.70
2018-09-30T13:08:11.027Z,100935.89
2018-09-30T13:11:14.977Z,100932.84
2018-09-30T13:14:19.165Z,100931.34
2018-09-30T13:17:24.737Z,100928.39
2018-09-30T13:20:28.854Z,100923.21
2018-09-30T13:23:32.935Z,100923.47
2018-09-30T13:26:43.653Z,100923.20
2018-09-30T13:35:09.802Z,100926.15
2018-09-30T13:38:20.951Z,100921.13
2018-09-30T13:41:33.149Z,100906.05
2018-09-30T13:44:45.654Z,100903.59
2018-09-30T13:47:50.327Z,100915.03
2018-09-30T13:50:54.221Z,100917.41
2018-09-30T13:53:58.561Z,100909.49
2018-09-30T13:57:02.559Z,100912.08
2018-09-30T14:00:07.401Z,100913.99
2018-09-30T14:03:11.336Z,100909.09
2018-09-30T14:06:15.193Z,100909.28
2018-09-30T14:09:19.085Z,100909.20
2018-09-30T14:12:23.319Z,100904.03
2018-09-30T14:15:27.247Z,100899.50
2018-09-30T14:18:31.128Z,100905.24
2018-09-30T14:21:35.030Z,100895.00
2018-09-30T14:24:38.913Z,100893.16
2018-09-30T14:27:42.823Z,100896.58
2018-09-30T14:30:46.742Z,100898.80
2018-09-30T14:33:50.901Z,100893.28
2018-09-30T14:36:54.804Z,100895.13
2018-09-30T14:39:58.727Z,100893.28
2018-09-30T14:43:02.629Z,100886.09
2018-09-30T14:46:07.118Z,100885.73
2018-09-30T14:49:11.370Z,100889.71
2018-09-30T14:52:15.753Z,100883.70
2018-09-30T14:55:19.641Z,100883.55
2018-09-30T14:58:23.530Z,100876.08
2018-09-30T15:01:27.434Z,100880.16
2018-09-30T15:04:31.318Z,100877.83
2018-09-30T15:07:35.237Z,100875.61
2018-09-30T15:10:39.125Z,100873.44
2018-09-30T15:13:43.069Z,100871.57
2018-09-30T15:16:46.982Z,100871.38
2018-09-30T15:19:50.869Z,100873.25
2018-09-30T15:22:54.961Z,100865.59
2018-09-30T15:25:59.194Z,100865.95
2018-09-30T15:29:03.089Z,100859.06
2018-09-30T15:32:06.993Z,100856.66
2018-09-30T15:35:11.217Z,100855.47
2018-09-30T15:38:15.113Z,100854.27
2018-09-30T15:41:19.030Z,100848.38
2018-09-30T15:44:23.049Z,100847.55
2018-09-30T15:47:26.921Z,100844.70
2018-09-30T15:50:30.844Z,100848.03
2018-09-30T15:53:34.765Z,100844.72
2018-09-30T15:56:38.979Z,100852.31
2018-09-30T15:59:43.025Z,100851.48
2018-09-30T16:02:47.000Z,100846.78
2018-09-30T16:05:50.913Z,100848.97
2018-09-30T16:08:54.803Z,100849.73
2018-09-30T16:11:58.886Z,100845.23
2018-09-30T16:15:02.867Z,100844.58
2018-09-30T16:18:06.773Z,100844.88
2018-09-30T16:21:11.047Z,100841.73
2018-09-30T16:24:15.129Z,100847.57
2018-09-30T16:27:19.005Z,100845.75
2018-09-30T16:30:22.901Z,100836.41
2018-09-30T16:33:27.080Z,100839.09
2018-09-30T16:36:31.527Z,100842.97
2018-09-30T16:39:35.418Z,100840.55
2018-09-30T16:42:39.320Z,100846.94
2018-09-30T16:45:43.206Z,100841.97
2018-09-30T16:48:47.301Z,100845.65
2018-09-30T16:51:51.244Z,100843.26
2018-09-30T16:54:55.273Z,100842.43
2018-09-30T16:57:59.170Z,100836.33
2018-09-30T17:01:03.065Z,100836.53
2018-09-30T17:04:07.292Z,100828.97
2018-09-30T17:07:11.505Z,100828.87
2018-09-30T17:10:15.729Z,100839.59
2018-09-30T17:13:19.656Z,100849.24
2018-09-30T17:16:23.568Z,100851.28
2018-09-30T17:19:27.654Z,100854.98
2018-09-30T17:22:31.748Z,100862.70
2018-09-30T17:25:35.629Z,100857.98
2018-09-30T17:28:39.509Z,100856.61
2018-09-30T17:31:43.760Z,100856.12
2018-09-30T17:34:47.734Z,100863.09
2018-09-30T17:37:51.782Z,100862.17
2018-09-30T17:40:56.227Z,100863.89
2018-09-30T17:44:00.174Z,100867.48
2018-09-30T17:47:04.533Z,100865.92
2018-09-30T17:50:08.435Z,100862.57
2018-09-30T17:53:12.510Z,100863.48
2018-09-30T17:56:16.519Z,100858.08
2018-09-30T17:59:20.401Z,100856.51
2018-09-30T18:02:24.310Z,100850.42
2018-09-30T18:05:28.203Z,100851.13
2018-09-30T18:08:32.291Z,100855.26
2018-09-30T18:11:36.353Z,100851.54
2018-09-30T18:14:40.237Z,100850.43
2018-09-30T18:17:44.223Z,100852.91
2018-09-30T18:20:48.453Z,100852.12
2018-09-30T18:23:52.447Z,100856.45
2018-09-30T18:26:56.422Z,100847.33
2018-09-30T18:30:00.370Z,100854.78
2018-09-30T18:33:04.336Z,100847.73
2018-09-30T18:36:08.229Z,100841.48
2018-09-30T18:39:13.130Z,100842.20
2018-09-30T18:42:17.134Z,100844.72
2018-09-30T18:45:21.362Z,100838.91
2018-09-30T18:48:25.461Z,100828.09
2018-09-30T18:51:29.366Z,100824.77
2018-09-30T18:54:33.261Z,100827.44
2018-09-30T18:57:37.153Z,100827.66
2018-09-30T19:00:44.103Z,100816.08
2018-09-30T19:03:48.112Z,100819.56
2018-09-30T19:06:52.009Z,100812.09
2018-09-30T19:09:55.906Z,100811.04
2018-09-30T19:12:59.802Z,100810.20
2018-09-30T19:16:03.939Z,100810.37
2018-09-30T19:19:08.404Z,100807.23
2018-09-30T19:22:12.502Z,100806.55
2018-09-30T19:25:16.403Z,100801.94
2018-09-30T19:28:20.478Z,100792.73
2018-09-30T19:31:24.555Z,100789.83
2018-09-30T19:34:28.444Z,100796.89
2018-09-30T19:37:32.344Z,100798.89
2018-09-30T19:40:36.442Z,100793.51
2018-09-30T19:43:40.333Z,100792.48
2018-09-30T19:46:44.236Z,100785.38
2018-09-30T19:49:48.109Z,100792.95
2018-09-30T19:52:52.005Z,100795.73
2018-09-30T19:55:55.888Z,100787.86
2018-09-30T19:59:00.002Z,100787.28
2018-09-30T20:02:03.906Z,100788.03
2018-09-30T20:05:07.795Z,100782.23
2018-09-30T20:08:11.699Z,100781.08
2018-09-30T20:11:15.786Z,100779.04
2018-09-30T20:14:19.722Z,100778.91
2018-09-30T20:17:23.631Z,100774.30
2018-09-30T20:20:27.512Z,100776.09
2018-09-30T20:23:31.480Z,100769.91
2018-09-30T20:26:35.718Z,100765.68
2018-09-30T20:29:39.932Z,100764.18
2018-09-30T20:32:43.820Z,100754.86
2018-09-30T20:35:48.091Z,100748.59
2018-09-30T20:38:51.985Z,100749.13
2018-09-30T20:41:55.885Z,100749.75
2018-09-30T20:44:59.794Z,100745.94
2018-09-30T20:48:03.679Z,100745.27
2018-09-30T20:51:07.610Z,100739.46
2018-09-30T20:54:11.702Z,100736.19
2018-09-30T20:57:15.581Z,100728.64
2018-09-30T21:00:19.482Z,100726.31
2018-09-30T21:03:23.349Z,100733.77
2018-09-30T21:06:42.997Z,100728.34
2018-09-30T21:09:46.881Z,100737.11
2018-09-30T21:12:51.060Z,100739.81
2018-09-30T21:15:55.297Z,100738.10
2018-09-30T21:18:59.542Z,100735.75
2018-09-30T21:22:03.417Z,100734.98
2018-09-30T21:25:07.304Z,100727.73
2018-09-30T21:28:11.201Z,100727.72
2018-09-30T21:31:15.611Z,100725.78
2018-09-30T21:34:19.518Z,100721.59
2018-09-30T21:37:23.986Z,100727.28
2018-09-30T21:40:27.873Z,100718.13
2018-09-30T21:43:31.774Z,100718.59
2018-09-30T21:46:35.977Z,100721.45
2018-09-30T21:49:40.177Z,100714.28
2018-09-30T21:52:44.078Z,100721.41
2018-09-30T21:55:47.986Z,100712.09
2018-09-30T21:58:51.875Z,100706.28
2018-09-30T22:01:55.767Z,100709.15
2018-09-30T22:04:59.652Z,100709.90
2018-09-30T22:08:04.394Z,100707.95
2018-09-30T22:11:08.615Z,100706.58
2018-09-30T22:14:12.517Z,100703.94
2018-09-30T22:17:16.406Z,100700.16
2018-09-30T22:20:20.525Z,100697.59
2018-09-30T22:23:24.420Z,100689.88
2018-09-30T22:26:28.421Z,100690.17
2018-09-30T22:29:32.318Z,100692.29
2018-09-30T22:32:36.216Z,100692.20
2018-09-30T22:35:40.117Z,100686.16
2018-09-30T22:38:44.202Z,100681.18
2018-09-30T22:41:48.102Z,100678.98
2018-09-30T22:44:52.354Z,100674.55
2018-09-30T22:47:56.246Z,100674.09
2018-09-30T22:51:00.137Z,100672.89
2018-09-30T22:54:04.029Z,100674.75
2018-09-30T22:57:08.230Z,100674.55
2018-09-30T23:00:12.348Z,100672.05
2018-09-30T23:03:16.253Z,100669.78
2018-09-30T23:06:20.147Z,100663.19
2018-09-30T23:09:24.059Z,100664.34
2018-09-30T23:12:28.169Z,100659.12
2018-09-30T23:15:32.065Z,100654.73
2018-09-30T23:18:35.966Z,100650.05
2018-09-30T23:21:39.862Z,100650.52
2018-09-30T23:24:43.757Z,100645.21
2018-09-30T23:27:47.642Z,100652.33
2018-09-30T23:30:51.537Z,100646.28
2018-09-30T23:33:55.462Z,100654.81
2018-09-30T23:36:59.354Z,100652.00
2018-09-30T23:40:03.538Z,100652.62
2018-09-30T23:43:07.814Z,100656.16
2018-09-30T23:46:11.731Z,100647.48
2018-09-30T23:49:15.625Z,100646.03
2018-09-30T23:52:19.521Z,100644.00
2018-09-30T23:55:23.422Z,100644.45
2018-09-30T23:58:27.323Z,100640.73
